Time;durP1;ratioP1;P1;durP2;ratioP2;P2;SDS_P1;SDS_P2;PMS_P1;PMS_P2;Temp;Humidity;BMP_temperature;BMP_pressure;BME280_temperature;BME280_humidity;BME280_pressure;Samples;Min_cycle;Max_cycle;Signal;HPM_P1;HPM_P2
2021/12/14 00:01:42;;;;;;;;;21.25;18.25;;;;;7.85;75.48;102173.81;5013663;28;45443;-60
2021/12/14 00:04:20;;;;;;;;;16.20;15.60;;;;;7.83;75.21;102181.28;5016225;28;45454;-60
2021/12/14 00:06:47;;;;;;;;;18.60;15.20;;;;;7.79;74.73;102168.97;4997888;28;45497;-56
2021/12/14 00:09:24;;;;;;;;;18.60;15.00;;;;;7.54;74.36;102131.38;4998313;28;45351;-55
2021/12/14 00:12:39;;;;;;;;;18.40;13.60;;;;;7.80;74.19;102165.22;4999656;28;45273;-61
2021/12/14 00:17:18;;;;;;;;;20.20;15.40;;;;;7.81;74.85;102145.94;5016458;28;45375;-56
2021/12/14 00:19:44;;;;;;;;;18.60;15.20;;;;;7.80;73.67;102148.81;5015324;28;46432;-57
2021/12/14 00:25:05;;;;;;;;;18.80;16.40;;;;;7.77;73.74;102165.53;5031090;28;45512;-60
2021/12/14 00:27:30;;;;;;;;;16.40;11.40;;;;;7.71;74.17;102180.69;5016207;28;45255;-61
2021/12/14 00:29:57;;;;;;;;;12.75;12.00;;;;;7.71;73.94;102178.81;5015371;28;46205;-61
2021/12/14 00:32:25;;;;;;;;;15.20;10.40;;;;;7.63;74.43;102154.13;4997573;28;45544;-58
2021/12/14 00:34:53;;;;;;;;;13.00;9.40;;;;;7.57;73.91;102154.75;5015610;28;45410;-58
2021/12/14 00:37:27;;;;;;;;;13.80;10.40;;;;;7.43;74.25;102128.88;4998167;28;45601;-55
2021/12/14 00:39:53;;;;;;;;;10.60;10.00;;;;;7.62;74.59;102137.91;4998456;28;46309;-60
2021/12/14 00:42:19;;;;;;;;;12.40;11.20;;;;;7.69;74.43;102141.72;4998017;28;45454;-55
2021/12/14 00:44:44;;;;;;;;;11.25;10.25;;;;;7.69;74.13;102153.50;5015905;28;45208;-53
2021/12/14 00:47:10;;;;;;;;;11.00;10.00;;;;;7.65;74.13;102157.59;5015553;28;45649;-57
2021/12/14 00:49:36;;;;;;;;;13.25;10.75;;;;;7.50;73.91;102121.75;4981361;28;48772;-58
2021/12/14 00:52:02;;;;;;;;;15.50;11.25;;;;;7.72;74.46;102153.22;5014806;28;45303;-61
2021/12/14 00:54:27;;;;;;;;;12.80;12.80;;;;;7.73;73.83;102138.53;5015512;28;45504;-57
2021/12/14 00:56:53;;;;;;;;;15.00;11.25;;;;;7.74;74.88;102139.34;4997596;28;45342;-59
2021/12/14 00:59:20;;;;;;;;;15.25;12.25;;;;;7.76;73.96;102136.47;5014197;28;46137;-62
2021/12/14 01:01:51;;;;;;;;;14.60;11.40;;;;;7.49;74.37;102108.25;4993292;28;45451;-62
2021/12/14 01:04:21;;;;;;;;;11.00;11.00;;;;;7.72;74.06;102147.75;5010022;28;45490;-57
2021/12/14 01:06:47;;;;;;;;;8.00;6.60;;;;;7.66;74.27;102147.50;4995188;28;45425;-59
2021/12/14 01:09:24;;;;;;;;;11.40;7.80;;;;;7.62;74.08;102132.47;4964532;28;46617;-62
2021/12/14 01:11:50;;;;;;;;;13.20;11.40;;;;;7.41;74.46;102115.38;4994822;28;45309;-59
2021/12/14 01:14:27;;;;;;;;;6.25;6.00;;;;;7.70;74.52;102170.78;4994978;28;45448;-58
2021/12/14 01:17:08;;;;;;;;;8.20;8.20;;;;;7.64;74.13;102165.94;4995058;28;45516;-55
2021/12/14 01:19:36;;;;;;;;;13.80;10.20;;;;;7.64;74.18;102165.94;4994802;28;46706;-60
2021/12/14 01:25:27;;;;;;;;;10.40;9.20;;;;;7.36;74.65;102119.59;4994681;28;45346;-62
2021/12/14 01:27:59;;;;;;;;;10.00;9.20;;;;;7.17;74.84;102092.25;4994914;28;45495;-57
2021/12/14 01:30:32;;;;;;;;;12.60;11.00;;;;;7.75;75.27;102183.97;4994661;28;46224;-61
2021/12/14 01:33:02;;;;;;;;;8.20;7.00;;;;;7.69;74.69;102180.84;4994337;28;45525;-58
2021/12/14 01:35:30;;;;;;;;;12.00;10.00;;;;;7.67;74.50;102190.22;4994744;28;45365;-59
2021/12/14 01:38:01;;;;;;;;;12.20;7.60;;;;;7.50;74.42;102159.16;4994789;28;45482;-60
2021/12/14 01:40:53;;;;;;;;;13.20;11.80;;;;;7.65;74.68;102182.19;4993306;28;45735;-59
2021/12/14 01:43:16;;;;;;;;;10.00;8.00;;;;;7.73;74.55;102203.25;4993039;28;45363;-58
2021/12/14 01:45:42;;;;;;;;;9.80;8.80;;;;;7.50;74.56;102167.34;4994593;28;45451;-53
2021/12/14 01:48:08;;;;;;;;;10.25;8.50;;;;;7.49;74.49;102174.69;4995020;28;45520;-54
2021/12/14 01:50:46;;;;;;;;;10.00;9.00;;;;;7.63;74.70;102202.47;4993054;28;45455;-58
2021/12/14 01:53:13;;;;;;;;;8.60;7.20;;;;;7.67;74.21;102218.41;4993393;28;45412;-56
2021/12/14 01:55:39;;;;;;;;;11.80;8.20;;;;;7.71;74.59;102228.03;4994291;28;45410;-57
2021/12/14 01:58:06;;;;;;;;;10.00;10.00;;;;;7.55;75.08;102200.53;4993586;28;45575;-56
2021/12/14 02:00:52;;;;;;;;;11.80;10.60;;;;;7.57;73.97;102203.94;4992933;28;45522;-61
2021/12/14 02:03:18;;;;;;;;;8.00;7.40;;;;;7.67;74.01;102229.34;4993480;28;45433;-62
2021/12/14 02:05:47;;;;;;;;;7.50;6.75;;;;;7.66;74.76;102249.50;4994723;28;45288;-59
2021/12/14 02:08:35;;;;;;;;;13.20;9.40;;;;;7.66;74.38;102244.03;5009828;28;45470;-59
2021/12/14 02:11:03;;;;;;;;;9.20;8.80;;;;;7.70;73.84;102250.03;4994823;28;46018;-63
2021/12/14 02:13:34;;;;;;;;;10.60;9.80;;;;;7.31;74.74;102207.47;4997874;28;45301;-59
2021/12/14 02:16:05;;;;;;;;;8.20;7.60;;;;;7.63;74.79;102266.19;4996849;28;45566;-61
2021/12/14 02:18:30;;;;;;;;;10.00;7.20;;;;;7.46;74.60;102244.16;4998343;28;45285;-55
2021/12/14 02:21:07;;;;;;;;;10.25;9.75;;;;;7.38;74.79;102227.69;4997183;28;46620;-57
2021/12/14 02:23:33;;;;;;;;;9.20;7.80;;;;;7.65;74.36;102268.78;4997774;28;45445;-55
2021/12/14 02:26:01;;;;;;;;;8.20;8.00;;;;;7.67;74.71;102267.59;4998071;28;45949;-57
2021/12/14 02:28:26;;;;;;;;;12.40;9.80;;;;;7.62;75.07;102247.22;4997825;28;45340;-57
2021/12/14 02:30:53;;;;;;;;;12.50;12.50;;;;;7.59;74.62;102245.66;4997386;28;45641;-55
2021/12/14 02:33:24;;;;;;;;;16.40;14.40;;;;;7.64;74.78;102246.06;4997893;28;45363;-59
2021/12/14 02:35:49;;;;;;;;;9.60;8.00;;;;;7.58;75.52;102230.28;4996832;28;45460;-59
2021/12/14 02:38:17;;;;;;;;;14.75;11.25;;;;;7.48;74.87;102205.78;5013042;28;45626;-53
2021/12/14 02:40:53;;;;;;;;;8.00;7.00;;;;;7.52;74.81;102207.16;4995938;28;46135;-55
2021/12/14 02:43:21;;;;;;;;;11.60;9.60;;;;;7.10;74.82;102134.88;4997247;28;45660;-59
2021/12/14 02:45:46;;;;;;;;;10.60;9.20;;;;;7.55;74.62;102195.94;4997302;28;45422;-55
2021/12/14 02:48:12;;;;;;;;;11.25;9.50;;;;;7.63;74.28;102217.00;4996087;28;45482;-54
2021/12/14 02:50:38;;;;;;;;;13.75;10.00;;;;;7.66;74.66;102216.69;4996096;28;46077;-60
2021/12/14 02:53:04;;;;;;;;;11.50;10.25;;;;;7.67;74.40;102223.00;4996649;28;45561;-61
2021/12/14 02:55:29;;;;;;;;;6.75;6.75;;;;;7.59;74.34;102216.44;4997462;28;45339;-56
2021/12/14 02:57:57;;;;;;;;;12.25;9.50;;;;;7.58;74.62;102219.34;4990139;28;45688;-53
2021/12/14 03:00:37;;;;;;;;;12.40;8.60;;;;;7.54;74.30;102231.59;4966324;28;45976;-60
2021/12/14 03:03:07;;;;;;;;;10.40;10.20;;;;;7.55;74.79;102216.91;4996604;28;45429;-55
2021/12/14 03:05:34;;;;;;;;;13.40;11.80;;;;;7.48;74.30;102197.56;4995674;28;45314;-62
2021/12/14 03:08:21;;;;;;;;;15.60;10.40;;;;;7.55;75.16;102195.06;5011680;28;45360;-60
2021/12/14 03:11:10;;;;;;;;;11.00;9.60;;;;;7.66;74.71;102193.97;4996135;28;45749;-54
2021/12/14 03:13:54;;;;;;;;;11.60;10.20;;;;;7.68;74.13;102194.69;4997178;28;45478;-58
2021/12/14 03:16:28;;;;;;;;;8.80;8.80;;;;;7.72;74.61;102198.78;4996610;28;45410;-57
2021/12/14 03:18:54;;;;;;;;;13.80;9.80;;;;;7.76;74.85;102185.69;4997021;28;45430;-61
2021/12/14 03:21:26;;;;;;;;;17.40;11.60;;;;;7.79;74.69;102175.28;4994612;28;45807;-61
2021/12/14 03:24:06;;;;;;;;;11.40;11.00;;;;;7.81;74.86;102183.34;5011795;28;45343;-58
2021/12/14 03:26:32;;;;;;;;;13.20;10.00;;;;;7.80;74.08;102185.19;4995571;28;45383;-57
2021/12/14 03:29:00;;;;;;;;;20.80;15.00;;;;;7.76;74.39;102182.94;5006794;28;45776;-52
2021/12/14 03:31:34;;;;;;;;;12.60;12.60;;;;;7.79;74.28;102180.75;4994899;28;45200;-55
2021/12/14 03:34:04;;;;;;;;;19.40;14.20;;;;;7.76;74.08;102183.81;4996488;28;45160;-60
2021/12/14 03:36:41;;;;;;;;;12.60;11.40;;;;;7.80;74.12;102193.41;4995121;28;45457;-59
2021/12/14 03:39:21;;;;;;;;;11.00;10.20;;;;;7.77;73.72;102181.91;4996563;28;45464;-59
2021/12/14 03:41:55;;;;;;;;;11.60;10.80;;;;;7.76;73.67;102174.75;4994853;28;46706;-62
2021/12/14 03:44:27;;;;;;;;;14.60;14.60;;;;;7.83;74.02;102175.81;4978936;28;45572;-60
2021/12/14 03:47:00;;;;;;;;;11.80;11.20;;;;;7.85;73.88;102171.06;4996406;28;45346;-58
2021/12/14 03:49:31;;;;;;;;;15.00;12.80;;;;;7.87;73.82;102169.03;4995123;28;45574;-56
2021/12/14 03:51:56;;;;;;;;;16.80;14.00;;;;;7.89;74.31;102169.72;4996100;28;46042;-58
2021/12/14 03:54:22;;;;;;;;;11.50;11.50;;;;;7.78;73.62;102170.00;4994806;28;45287;-53
2021/12/14 03:56:48;;;;;;;;;16.00;16.00;;;;;7.78;74.20;102184.50;4995871;28;45413;-60
2021/12/14 03:59:14;;;;;;;;;16.80;14.40;;;;;7.66;74.58;102155.69;4996139;28;45591;-60
2021/12/14 04:01:42;;;;;;;;;23.25;15.25;;;;;7.81;74.08;102178.75;4994314;28;46154;-62
2021/12/14 04:04:33;;;;;;;;;21.00;16.00;;;;;7.30;74.68;102088.28;4995801;28;45446;-57
2021/12/14 04:06:59;;;;;;;;;15.00;13.20;;;;;7.76;74.44;102159.22;4996369;28;45403;-60
2021/12/14 04:09:28;;;;;;;;;15.00;14.00;;;;;7.82;74.62;102163.19;4995795;28;45539;-56
2021/12/14 04:11:54;;;;;;;;;9.60;8.00;;;;;7.83;74.10;102153.97;4995672;28;45438;-64
2021/12/14 04:14:20;;;;;;;;;22.25;17.50;;;;;7.83;74.43;102153.97;4994559;28;45381;-59
2021/12/14 04:16:47;;;;;;;;;13.50;12.00;;;;;7.67;74.68;102133.69;5010860;28;45408;-57
2021/12/14 04:19:21;;;;;;;;;15.80;15.80;;;;;7.82;74.36;102152.25;4996188;28;45542;-55
2021/12/14 04:21:46;;;;;;;;;18.60;14.80;;;;;7.47;74.60;102094.75;4995023;28;45462;-58
2021/12/14 04:24:12;;;;;;;;;20.50;17.50;;;;;7.51;74.14;102119.88;4977925;28;45624;-61
2021/12/14 04:26:44;;;;;;;;;19.50;15.00;;;;;7.80;74.24;102170.69;4995658;28;45744;-61
2021/12/14 04:29:12;;;;;;;;;14.00;14.00;;;;;7.55;73.52;102146.75;4995895;28;45631;-57
2021/12/14 04:31:37;;;;;;;;;16.80;15.40;;;;;7.74;74.19;102188.56;4977812;28;47209;-53
2021/12/14 04:34:03;;;;;;;;;16.00;15.75;;;;;7.75;74.32;102186.69;4994695;28;45350;-58
2021/12/14 04:36:30;;;;;;;;;19.00;16.00;;;;;7.73;74.26;102184.97;4995790;28;45354;-62
2021/12/14 04:39:22;;;;;;;;;21.20;19.40;;;;;7.75;73.87;102190.31;4995850;28;45623;-62
2021/12/14 04:53:12;;;;;;;;;24.60;22.60;;;;;7.58;74.75;102192.88;4995013;28;45244;-60
2021/12/14 04:55:40;;;;;;;;;24.80;20.40;;;;;7.26;75.21;102125.13;4995323;28;45372;-59
2021/12/14 04:58:06;;;;;;;;;26.00;21.80;;;;;7.63;75.53;102189.66;4993970;28;45348;-59
2021/12/14 05:00:38;;;;;;;;;20.50;18.75;;;;;7.62;75.53;102179.75;5003682;28;45703;-61
2021/12/14 05:03:10;;;;;;;;;30.20;18.60;;;;;7.66;74.94;102192.09;4981318;28;46632;-59
2021/12/14 05:05:40;;;;;;;;;25.80;19.60;;;;;7.67;75.16;102190.22;5014897;28;45468;-61
2021/12/14 05:10:43;;;;;;;;;23.20;18.40;;;;;7.70;75.51;102181.72;5014969;28;45387;-54
2021/12/14 05:13:08;;;;;;;;;24.00;19.60;;;;;7.70;75.11;102182.56;5014664;28;45807;-61
2021/12/14 05:15:39;;;;;;;;;23.25;17.00;;;;;7.65;74.69;102181.31;5014765;28;45478;-61
2021/12/14 05:18:11;;;;;;;;;20.80;18.40;;;;;7.65;75.51;102181.31;5014637;28;45689;-58
2021/12/14 05:20:40;;;;;;;;;21.40;17.20;;;;;7.67;75.10;102188.34;5013732;28;45679;-60
2021/12/14 05:23:06;;;;;;;;;23.40;18.40;;;;;7.69;75.20;102189.03;5014243;28;46591;-61
2021/12/14 05:25:31;;;;;;;;;26.00;22.75;;;;;7.66;75.18;102197.56;5014817;28;45283;-55
2021/12/14 05:27:58;;;;;;;;;25.75;20.00;;;;;7.62;75.46;102196.16;5014505;28;45382;-57
2021/12/14 05:30:29;;;;;;;;;16.00;15.20;;;;;7.42;75.26;102154.47;4997016;28;45407;-58
2021/12/14 05:32:59;;;;;;;;;18.20;14.20;;;;;7.68;75.15;102189.22;4996579;28;46509;-59
2021/12/14 05:35:25;;;;;;;;;15.60;15.40;;;;;7.65;75.27;102195.84;5014682;28;45314;-60
2021/12/14 05:37:53;;;;;;;;;23.25;17.25;;;;;7.65;74.83;102189.50;5014298;28;45514;-52
2021/12/14 05:40:56;;;;;;;;;23.20;18.00;;;;;7.72;75.27;102199.66;4997465;28;45299;-57
2021/12/14 05:43:15;;;;;;;;;26.60;20.40;;;;;7.62;74.92;102198.88;4999316;28;45978;-62
2021/12/14 05:45:50;;;;;;;;;27.40;24.20;;;;;7.60;75.21;102181.78;4999118;28;45423;-55
2021/12/14 05:48:18;;;;;;;;;25.40;19.80;;;;;7.24;75.04;102114.38;5000223;28;45306;-55
2021/12/14 05:50:47;;;;;;;;;17.20;13.20;;;;;7.67;74.92;102193.81;5000638;28;45582;-61
2021/12/14 05:53:20;;;;;;;;;24.00;17.60;;;;;7.51;75.11;102171.78;4983587;28;46271;-59
2021/12/14 05:55:46;;;;;;;;;15.80;14.40;;;;;7.64;75.23;102194.13;5000257;28;45430;-51
2021/12/14 05:58:14;;;;;;;;;17.50;14.25;;;;;6.97;75.44;102088.84;5017432;28;45407;-61
2021/12/14 06:00:44;;;;;;;;;22.80;18.80;;;;;7.69;75.54;102199.13;4980776;28;45432;-61
2021/12/14 06:03:23;;;;;;;;;18.80;17.60;;;;;7.69;74.85;102201.88;4979800;28;48482;-56
2021/12/14 06:05:49;;;;;;;;;19.80;18.20;;;;;7.65;75.17;102214.97;4996143;28;45414;-59
2021/12/14 06:08:23;;;;;;;;;23.75;18.75;;;;;7.63;74.96;102214.25;4997789;28;45240;-61
2021/12/14 06:10:48;;;;;;;;;20.80;18.80;;;;;7.41;75.58;102186.38;4998454;28;45341;-56
2021/12/14 06:13:17;;;;;;;;;24.50;18.75;;;;;7.37;75.55;102182.25;4996233;28;45847;-54
2021/12/14 06:15:42;;;;;;;;;21.40;18.20;;;;;7.39;75.40;102195.75;4996638;28;45538;-61
2021/12/14 06:18:08;;;;;;;;;19.00;16.00;;;;;7.51;75.39;102223.69;4997569;28;45319;-60
2021/12/14 06:20:34;;;;;;;;;25.25;21.00;;;;;7.53;75.60;102238.91;4997724;28;45600;-60
2021/12/14 06:22:59;;;;;;;;;24.75;20.00;;;;;7.52;75.43;102241.84;4997675;28;46587;-58
2021/12/14 06:25:27;;;;;;;;;19.50;18.00;;;;;7.53;75.82;102241.66;4996092;28;45767;-56
2021/12/14 06:27:55;;;;;;;;;20.00;19.00;;;;;7.38;75.74;102235.88;4979824;28;45456;-55
2021/12/14 06:30:27;;;;;;;;;23.60;21.40;;;;;7.50;75.26;102252.03;4997470;28;45364;-60
2021/12/14 06:32:55;;;;;;;;;21.80;18.80;;;;;7.52;75.11;102255.50;5017175;28;45358;-59
2021/12/14 06:35:29;;;;;;;;;17.60;15.60;;;;;7.51;74.85;102254.63;4999245;28;45415;-58
2021/12/14 06:40:55;;;;;;;;;18.80;16.20;;;;;7.33;74.85;102221.81;4999500;28;45518;-52
2021/12/14 06:43:21;;;;;;;;;19.40;17.40;;;;;7.40;74.85;102244.78;5016508;28;46380;-60
2021/12/14 06:45:55;;;;;;;;;15.00;14.80;;;;;7.46;75.22;102255.09;5016879;28;45496;-62
2021/12/14 06:48:41;;;;;;;;;23.20;19.60;;;;;7.45;75.10;102275.22;5000242;28;45401;-56
2021/12/14 06:51:24;;;;;;;;;18.80;13.20;;;;;7.34;75.09;102264.50;4977395;28;45896;-60
2021/12/14 06:53:59;;;;;;;;;17.60;14.00;;;;;7.41;75.09;102275.66;4998783;28;47570;-57
2021/12/14 06:56:26;;;;;;;;;20.40;18.00;;;;;7.42;75.58;102272.78;4982130;28;45407;-63
2021/12/14 06:59:03;;;;;;;;;15.60;11.80;;;;;7.39;75.04;102273.13;5015212;28;45413;-59
2021/12/14 07:01:34;;;;;;;;;19.20;18.20;;;;;7.41;74.48;102271.06;5016615;28;45571;-61
2021/12/14 07:04:05;;;;;;;;;17.60;14.00;;;;;7.42;75.16;102269.22;5016997;28;46840;-60
2021/12/14 07:06:35;;;;;;;;;13.00;11.00;;;;;7.45;75.36;102279.81;5016301;28;45504;-56
2021/12/14 07:09:09;;;;;;;;;19.40;16.40;;;;;7.48;74.92;102290.47;5016819;28;45417;-62
2021/12/14 07:11:35;;;;;;;;;19.40;13.60;;;;;7.50;75.07;102282.09;5016566;28;45604;-58
2021/12/14 07:14:02;;;;;;;;;18.75;15.75;;;;;7.49;74.21;102281.25;4998812;28;45733;-60
2021/12/14 07:16:33;;;;;;;;;20.00;11.60;;;;;7.45;74.94;102279.81;4998778;28;45420;-55
2021/12/14 07:19:00;;;;;;;;;19.40;16.60;;;;;7.51;74.62;102276.47;4982715;28;45466;-62
2021/12/14 07:21:35;;;;;;;;;19.00;15.80;;;;;7.54;74.18;102268.00;4998749;28;45506;-57
2021/12/14 07:24:20;;;;;;;;;19.60;15.80;;;;;7.48;74.70;102265.00;5016213;28;45456;-60
2021/12/14 07:26:46;;;;;;;;;18.00;15.40;;;;;7.47;75.07;102264.13;5014588;28;45521;-59
2021/12/14 07:29:12;;;;;;;;;25.80;23.20;;;;;7.49;74.86;102272.19;5014930;28;45345;-61
2021/12/14 07:31:41;;;;;;;;;17.50;16.00;;;;;7.52;75.09;102280.09;4998839;28;45347;-63
2021/12/14 07:34:07;;;;;;;;;21.20;14.80;;;;;7.55;74.60;102277.03;4998318;28;46894;-57
2021/12/14 07:36:34;;;;;;;;;15.75;15.25;;;;;7.51;75.06;102276.47;4998233;28;45759;-61
2021/12/14 07:39:04;;;;;;;;;19.00;15.60;;;;;7.56;75.04;102273.28;4981915;28;45480;-58
2021/12/14 07:41:35;;;;;;;;;17.40;16.40;;;;;7.49;74.70;102266.72;4982056;28;45558;-60
2021/12/14 07:44:18;;;;;;;;;24.00;19.80;;;;;7.55;74.98;102282.50;4997959;28;47474;-53
2021/12/14 07:46:44;;;;;;;;;23.20;19.60;;;;;7.55;75.11;102283.38;4997800;28;45546;-60
2021/12/14 07:49:19;;;;;;;;;26.80;19.80;;;;;7.62;74.35;102294.53;5016106;28;45855;-56
2021/12/14 07:51:46;;;;;;;;;20.60;15.00;;;;;7.59;74.10;102294.84;4998169;28;45399;-60
2021/12/14 07:54:14;;;;;;;;;20.60;18.40;;;;;7.50;74.54;102298.47;4985791;28;45652;-61
2021/12/14 07:56:51;;;;;;;;;23.40;18.60;;;;;7.25;75.23;102255.34;4992426;28;45407;-55
2021/12/14 07:59:23;;;;;;;;;24.80;19.20;;;;;7.55;74.60;102293.44;4993951;28;45427;-61
2021/12/14 08:01:49;;;;;;;;;18.60;14.80;;;;;7.55;74.91;102307.97;4995201;28;45493;-55
2021/12/14 08:04:15;;;;;;;;;24.60;18.20;;;;;7.58;74.56;102310.38;4996190;28;46596;-56
2021/12/14 08:06:42;;;;;;;;;18.50;17.25;;;;;7.55;74.46;102301.63;4978680;28;45350;-60
2021/12/14 08:09:07;;;;;;;;;22.20;18.40;;;;;7.58;75.02;102313.09;4978414;28;45326;-59
2021/12/14 08:14:04;;;;;;;;;26.80;19.60;;;;;7.47;74.26;102326.97;4995550;28;46336;-63
2021/12/14 08:16:53;;;;;;;;;25.40;20.00;;;;;7.41;74.50;102333.03;4996105;28;45323;-60
2021/12/14 08:19:32;;;;;;;;;19.80;18.40;;;;;7.35;75.39;102309.94;4994748;28;45435;-60
2021/12/14 08:22:24;;;;;;;;;21.00;18.40;;;;;7.48;75.06;102333.31;4996170;28;45284;-59
2021/12/14 08:24:50;;;;;;;;;18.20;14.60;;;;;7.52;74.81;102340.19;4925355;28;45475;-57
2021/12/14 08:27:21;;;;;;;;;20.25;17.25;;;;;7.54;74.86;102343.63;4993675;28;45431;-55
2021/12/14 08:29:52;;;;;;;;;27.20;20.40;;;;;7.67;74.24;102346.84;5004216;28;45808;-57
2021/12/14 08:32:20;;;;;;;;;22.80;14.60;;;;;7.72;74.36;102340.91;4998520;28;45333;-57
2021/12/14 08:34:47;;;;;;;;;23.80;20.00;;;;;7.76;74.05;102334.16;5015598;28;46616;-56
2021/12/14 08:37:18;;;;;;;;;22.80;18.60;;;;;7.46;73.58;102282.41;5015454;28;45669;-54
2021/12/14 08:39:58;;;;;;;;;20.40;16.80;;;;;7.84;73.64;102341.56;5015405;28;45389;-52
2021/12/14 08:43:11;;;;;;;;;22.40;18.20;;;;;7.85;73.63;102335.94;5015180;28;45543;-57
2021/12/14 08:45:46;;;;;;;;;24.00;19.60;;;;;7.86;74.02;102345.84;4979236;28;46552;-59
2021/12/14 08:48:13;;;;;;;;;20.20;17.60;;;;;7.87;74.04;102346.72;5015001;28;45288;-59
2021/12/14 08:50:45;;;;;;;;;23.80;17.20;;;;;7.33;73.67;102262.78;4997412;28;45461;-57
2021/12/14 08:53:12;;;;;;;;;24.00;18.20;;;;;7.90;73.88;102361.97;4958866;28;45854;-54
2021/12/14 08:55:38;;;;;;;;;19.20;14.60;;;;;7.72;73.75;102333.59;4995200;28;46221;-52
2021/12/14 08:58:04;;;;;;;;;21.75;19.00;;;;;7.91;74.20;102359.09;4994845;28;45242;-55
2021/12/14 09:00:38;;;;;;;;;23.20;19.60;;;;;7.92;73.60;102374.47;5006450;28;45832;-54
2021/12/14 09:03:06;;;;;;;;;20.00;16.60;;;;;7.90;73.42;102364.69;4980418;28;45812;-57
2021/12/14 09:05:38;;;;;;;;;21.40;16.20;;;;;7.89;73.30;102363.00;5014258;28;45470;-53
2021/12/14 09:08:04;;;;;;;;;20.00;16.80;;;;;7.79;73.92;102352.97;5013021;28;46221;-54
2021/12/14 09:10:31;;;;;;;;;27.60;18.60;;;;;7.84;73.52;102352.50;5014441;28;45282;-55
2021/12/14 09:12:59;;;;;;;;;22.00;18.80;;;;;7.91;73.78;102350.00;4997510;28;45329;-51
2021/12/14 09:15:34;;;;;;;;;23.40;18.80;;;;;7.74;73.58;102308.81;4980124;28;45503;-61
2021/12/14 09:18:03;;;;;;;;;23.80;16.80;;;;;7.93;73.69;102326.09;4981008;28;45802;-58
2021/12/14 09:20:36;;;;;;;;;24.00;22.60;;;;;8.02;73.79;102333.38;4996281;28;45752;-51
2021/12/14 09:23:06;;;;;;;;;19.60;15.40;;;;;8.02;73.26;102327.03;5014824;28;45345;-57
2021/12/14 09:25:32;;;;;;;;;32.00;20.00;;;;;8.06;74.08;102336.66;4996500;28;46664;-54
2021/12/14 09:27:59;;;;;;;;;23.00;21.75;;;;;8.13;73.70;102346.81;4997077;28;45539;-61
2021/12/14 09:30:26;;;;;;;;;23.80;18.60;;;;;8.16;73.32;102356.59;5014468;28;45397;-63
2021/12/14 09:32:52;;;;;;;;;24.80;19.80;;;;;8.19;72.95;102360.88;4996997;28;45601;-57
2021/12/14 09:35:20;;;;;;;;;24.00;20.25;;;;;8.16;72.99;102355.75;4996530;28;45465;-59
2021/12/14 09:37:47;;;;;;;;;25.40;19.60;;;;;8.19;73.20;102352.69;4980702;28;45368;-56
2021/12/14 09:40:18;;;;;;;;;28.40;24.60;;;;;8.02;73.63;102324.31;5014625;28;45287;-57
2021/12/14 09:42:44;;;;;;;;;30.80;22.00;;;;;8.23;73.48;102363.13;4996960;28;45462;-59
2021/12/14 09:45:15;;;;;;;;;29.75;22.00;;;;;8.20;73.36;102352.53;4996429;28;46429;-58
2021/12/14 09:47:41;;;;;;;;;24.00;19.20;;;;;8.26;73.16;102357.38;4980616;28;45321;-55
2021/12/14 09:50:13;;;;;;;;;26.00;21.80;;;;;8.32;72.87;102365.97;4993353;28;45360;-57
2021/12/14 09:52:40;;;;;;;;;24.00;18.20;;;;;8.36;72.97;102375.56;4953473;28;45295;-58
2021/12/14 09:55:09;;;;;;;;;27.20;21.80;;;;;8.37;73.10;102377.28;4985266;28;45411;-57
2021/12/14 09:57:43;;;;;;;;;22.20;18.20;;;;;8.31;72.76;102364.25;4983611;28;46533;-57
2021/12/14 10:00:24;;;;;;;;;31.80;23.80;;;;;8.30;72.57;102366.13;4977807;28;45606;-61
2021/12/14 10:02:50;;;;;;;;;36.00;28.00;;;;;8.36;72.90;102379.19;4994519;28;45323;-58
2021/12/14 10:05:23;;;;;;;;;29.60;20.60;;;;;8.29;72.83;102364.41;4992773;28;45462;-56
2021/12/14 10:07:49;;;;;;;;;25.20;21.20;;;;;8.41;73.18;102382.31;4992752;28;45335;-58
2021/12/14 10:10:18;;;;;;;;;29.00;26.80;;;;;8.40;72.76;102382.47;4992955;28;45333;-57
2021/12/14 10:12:51;;;;;;;;;28.20;23.80;;;;;8.24;72.31;102353.94;4993122;28;45407;-58
2021/12/14 10:15:34;;;;;;;;;23.20;22.00;;;;;7.79;72.57;102267.38;4994419;28;46558;-57
2021/12/14 10:18:05;;;;;;;;;22.60;21.00;;;;;8.45;72.59;102371.91;4993939;28;45232;-62
2021/12/14 10:20:36;;;;;;;;;24.80;20.20;;;;;8.20;72.57;102329.78;4990946;28;45409;-59
2021/12/14 10:23:01;;;;;;;;;30.40;21.40;;;;;8.45;72.31;102371.91;4991158;28;45559;-58
2021/12/14 10:25:27;;;;;;;;;30.75;22.00;;;;;8.27;72.59;102337.19;4975411;28;47842;-56
2021/12/14 10:27:53;;;;;;;;;23.75;21.00;;;;;8.44;72.42;102359.25;4991766;28;45340;-61
2021/12/14 10:30:29;;;;;;;;;30.40;24.40;;;;;8.51;72.45;102381.34;4975736;28;45536;-60
2021/12/14 10:32:55;;;;;;;;;33.60;24.60;;;;;8.54;72.89;102381.09;4994859;28;45338;-58
2021/12/14 10:35:23;;;;;;;;;22.75;22.50;;;;;8.54;72.21;102373.72;4995312;28;45772;-57
2021/12/14 10:38:07;;;;;;;;;25.00;21.00;;;;;8.58;72.29;102382.47;4981125;28;45870;-62
2021/12/14 10:43:19;;;;;;;;;24.40;19.80;;;;;8.27;72.11;102339.94;4989395;28;45478;-62
2021/12/14 10:45:52;;;;;;;;;31.75;25.50;;;;;8.54;72.59;102376.44;4974926;28;45431;-62
2021/12/14 10:48:19;;;;;;;;;23.80;19.80;;;;;8.45;72.53;102351.88;4975365;28;45486;-57
2021/12/14 10:50:47;;;;;;;;;24.60;21.20;;;;;7.92;72.57;102270.56;4992606;28;45377;-55
2021/12/14 10:53:12;;;;;;;;;31.20;23.00;;;;;8.63;72.11;102382.84;4997058;28;45219;-59
2021/12/14 10:55:42;;;;;;;;;29.50;21.25;;;;;8.51;72.00;102359.47;5011688;28;46533;-60
2021/12/14 10:58:08;;;;;;;;;26.80;21.60;;;;;8.68;72.16;102387.84;5010423;28;45523;-58
2021/12/14 11:00:46;;;;;;;;;22.00;18.75;;;;;8.65;72.28;102388.19;5005140;28;45597;-59
2021/12/14 11:03:16;;;;;;;;;21.40;20.80;;;;;8.24;72.01;102309.31;4992020;28;45301;-63
2021/12/14 11:05:44;;;;;;;;;29.80;23.00;;;;;8.71;71.95;102381.19;4995414;28;46457;-57
2021/12/14 11:08:33;;;;;;;;;26.20;21.80;;;;;8.61;72.20;102384.03;4995056;28;45785;-58
2021/12/14 11:10:58;;;;;;;;;26.40;22.40;;;;;8.59;72.49;102365.03;4991120;28;45295;-60
2021/12/14 11:13:45;;;;;;;;;26.25;22.25;;;;;8.69;72.59;102378.63;4995470;28;45485;-61
2021/12/14 11:19:47;;;;;;;;;24.20;20.60;;;;;8.75;72.04;102382.63;4995605;28;45303;-56
2021/12/14 11:22:23;;;;;;;;;27.80;21.00;;;;;8.63;71.83;102352.75;4995147;28;45445;-58
2021/12/14 11:28:15;;;;;;;;;23.40;21.00;;;;;8.80;71.98;102363.81;4993521;28;45836;-61
2021/12/14 11:30:52;;;;;;;;;30.80;26.20;;;;;8.81;70.82;102374.59;4995159;28;45481;-61
2021/12/14 11:33:35;;;;;;;;;34.40;26.80;;;;;8.70;72.07;102350.22;4993855;28;45361;-62
2021/12/14 11:36:06;;;;;;;;;34.40;26.00;;;;;8.80;71.63;102366.53;4995736;28;45428;-61
2021/12/14 11:38:33;;;;;;;;;27.60;22.60;;;;;8.84;72.07;102365.22;4995250;28;45497;-51
2021/12/14 11:41:21;;;;;;;;;33.60;24.80;;;;;8.88;72.09;102366.63;4995579;28;45591;-56
2021/12/14 11:43:52;;;;;;;;;27.60;26.00;;;;;8.91;71.70;102363.53;4994771;28;45272;-55
2021/12/14 11:46:18;;;;;;;;;31.20;26.00;;;;;8.70;71.67;102322.84;4995194;28;45398;-60
2021/12/14 11:48:44;;;;;;;;;35.80;26.40;;;;;8.92;71.57;102359.78;4994162;28;45852;-57
2021/12/14 11:51:10;;;;;;;;;33.00;25.00;;;;;8.96;72.12;102352.09;4995211;28;45459;-60
2021/12/14 11:53:36;;;;;;;;;25.40;22.40;;;;;8.98;71.42;102350.09;4994764;28;45259;-62
2021/12/14 11:56:04;;;;;;;;;28.50;25.50;;;;;9.02;71.35;102356.94;4994593;28;45663;-59
2021/12/14 11:58:48;;;;;;;;;28.80;27.40;;;;;8.99;71.20;102346.31;4993706;28;46666;-60
2021/12/14 12:01:44;;;;;;;;;35.20;27.00;;;;;9.00;70.64;102347.16;5008640;28;45469;-61
2021/12/14 12:04:19;;;;;;;;;27.00;27.00;;;;;9.03;71.49;102344.94;5013082;28;45406;-62
2021/12/14 12:09:28;;;;;;;;;41.00;33.00;;;;;8.85;71.93;102308.59;4981196;28;45892;-56
2021/12/14 12:09:41;;;;;;;;;35.40;26.40;;;;;9.09;71.14;102347.03;5014937;28;45731;-60
2021/12/14 12:12:06;;;;;;;;;28.60;25.20;;;;;9.13;71.00;102344.84;4975646;28;45439;-60
2021/12/14 12:14:52;;;;;;;;;31.00;27.50;;;;;9.12;70.91;102336.81;5008107;28;45401;-61